CAL711 RCTP-RCKH
Flight info
| Callsign | CAL711 |
|---|---|
| Flight time | 0h 52m |
| Altitude | 36000 |
| Route | TINHO1A TINHO B591 HCN HCN1G |
| Aircraft | B738/M-SDE2E3FGHIRWXY/LB1 |
Departure
| Time | 2026-04-25 10:32 |
|---|---|
| Airport | Taiwan Taoyuan International Airport (RCTP) |
Arrival
| Time | 2026-04-25 11:25 |
|---|---|
| Airport | Kaohsiung International Airport (RCKH) |
| Time | Latitude | Longitude | Altitude | Speed | Heading |
|---|---|---|---|---|---|
| 2026-04-25 10:09 | 25.07630 | 121.23817 | 99 ft | 0 kts | 319° |
| 2026-04-25 10:20 | 25.07628 | 121.23819 | 99 ft | 0 kts | 319° |
| 2026-04-25 10:20 | 25.07620 | 121.23827 | 99 ft | 2 kts | 318° |
| 2026-04-25 10:20 | 25.07607 | 121.23839 | 99 ft | 2 kts | 318° |
| 2026-04-25 10:21 | 25.07595 | 121.23851 | 98 ft | 2 kts | 316° |
| 2026-04-25 10:21 | 25.07583 | 121.23864 | 99 ft | 2 kts | 315° |
| 2026-04-25 10:21 | 25.07572 | 121.23877 | 98 ft | 2 kts | 310° |
| 2026-04-25 10:21 | 25.07562 | 121.23891 | 96 ft | 2 kts | 294° |
| 2026-04-25 10:22 | 25.07561 | 121.23908 | 96 ft | 1 kts | 230° |
| 2026-04-25 10:22 | 25.07563 | 121.23910 | 96 ft | 0 kts | 228° |
| 2026-04-25 10:25 | 25.07542 | 121.23885 | 98 ft | 11 kts | 227° |
| 2026-04-25 10:25 | 25.07465 | 121.23790 | 99 ft | 22 kts | 229° |
| 2026-04-25 10:26 | 25.07363 | 121.23660 | 98 ft | 22 kts | 229° |
| 2026-04-25 10:26 | 25.07263 | 121.23533 | 99 ft | 22 kts | 229° |
| 2026-04-25 10:26 | 25.07165 | 121.23410 | 99 ft | 21 kts | 228° |
| 2026-04-25 10:26 | 25.07070 | 121.23292 | 98 ft | 21 kts | 229° |
| 2026-04-25 10:27 | 25.06977 | 121.23169 | 97 ft | 21 kts | 229° |
| 2026-04-25 10:27 | 25.06881 | 121.23049 | 99 ft | 21 kts | 228° |
| 2026-04-25 10:27 | 25.06774 | 121.22916 | 99 ft | 25 kts | 229° |
| 2026-04-25 10:27 | 25.06656 | 121.22760 | 98 ft | 28 kts | 230° |
| 2026-04-25 10:28 | 25.06521 | 121.22588 | 97 ft | 31 kts | 229° |
| 2026-04-25 10:28 | 25.06371 | 121.22402 | 99 ft | 33 kts | 230° |
| 2026-04-25 10:28 | 25.06256 | 121.22259 | 99 ft | 21 kts | 216° |
| 2026-04-25 10:28 | 25.06192 | 121.22263 | 99 ft | 9 kts | 140° |
| 2026-04-25 10:29 | 25.06189 | 121.22266 | 98 ft | 0 kts | 138° |
| 2026-04-25 10:29 | 25.06184 | 121.22271 | 98 ft | 2 kts | 138° |
| 2026-04-25 10:30 | 25.06171 | 121.22284 | 97 ft | 4 kts | 137° |
| 2026-04-25 10:30 | 25.06156 | 121.22299 | 97 ft | 5 kts | 137° |
| 2026-04-25 10:30 | 25.06122 | 121.22338 | 96 ft | 8 kts | 124° |
| 2026-04-25 10:30 | 25.06131 | 121.22413 | 95 ft | 8 kts | 57° |
| 2026-04-25 10:31 | 25.06134 | 121.22417 | 95 ft | 0 kts | 48° |
| 2026-04-25 10:31 | 25.06155 | 121.22442 | 95 ft | 24 kts | 48° |
| 2026-04-25 10:32 | 25.06427 | 121.22792 | 93 ft | 95 kts | 50° |
| 2026-04-25 10:32 | 25.06979 | 121.23515 | 114 ft | 147 kts | 56° |
| 2026-04-25 10:32 | 25.07459 | 121.24119 | 240 ft | 167 kts | 50° |
| 2026-04-25 10:32 | 25.08348 | 121.25023 | 766 ft | 182 kts | 45° |
| 2026-04-25 10:33 | 25.09507 | 121.26478 | 1473 ft | 196 kts | 54° |
| 2026-04-25 10:33 | 25.10094 | 121.27312 | 1609 ft | 211 kts | 53° |
| 2026-04-25 10:33 | 25.11351 | 121.29063 | 2090 ft | 226 kts | 53° |
| 2026-04-25 10:33 | 25.12399 | 121.30380 | 2676 ft | 232 kts | 49° |
| 2026-04-25 10:34 | 25.13157 | 121.31270 | 2839 ft | 249 kts | 48° |
| 2026-04-25 10:34 | 25.14797 | 121.33158 | 3656 ft | 261 kts | 46° |
| 2026-04-25 10:34 | 25.15660 | 121.34149 | 4037 ft | 269 kts | 46° |
| 2026-04-25 10:34 | 25.16979 | 121.35662 | 4648 ft | 277 kts | 45° |
| 2026-04-25 10:35 | 25.18326 | 121.37208 | 5264 ft | 285 kts | 45° |
| 2026-04-25 10:35 | 25.19702 | 121.38790 | 6041 ft | 288 kts | 45° |
| 2026-04-25 10:35 | 25.21113 | 121.40414 | 6658 ft | 296 kts | 45° |
| 2026-04-25 10:35 | 25.22549 | 121.42069 | 7364 ft | 300 kts | 45° |
| 2026-04-25 10:36 | 25.23996 | 121.43737 | 8135 ft | 303 kts | 45° |
| 2026-04-25 10:36 | 25.25467 | 121.45433 | 8845 ft | 309 kts | 45° |
| 2026-04-25 10:36 | 25.26972 | 121.47168 | 9649 ft | 313 kts | 45° |
| 2026-04-25 10:36 | 25.28434 | 121.48925 | 10356 ft | 320 kts | 52° |
| 2026-04-25 10:37 | 25.29361 | 121.51244 | 10567 ft | 345 kts | 82° |
| 2026-04-25 10:37 | 25.29188 | 121.53932 | 10742 ft | 362 kts | 111° |
| 2026-04-25 10:37 | 25.27897 | 121.56350 | 10918 ft | 373 kts | 138° |
| 2026-04-25 10:37 | 25.25734 | 121.57927 | 11157 ft | 377 kts | 165° |
| 2026-04-25 10:38 | 25.23171 | 121.58288 | 11642 ft | 372 kts | 190° |
| 2026-04-25 10:38 | 25.20691 | 121.57536 | 12231 ft | 368 kts | 202° |
| 2026-04-25 10:38 | 25.18236 | 121.56726 | 12937 ft | 371 kts | 197° |
| 2026-04-25 10:38 | 25.15638 | 121.56341 | 13458 ft | 383 kts | 185° |
| 2026-04-25 10:39 | 25.12957 | 121.56709 | 14055 ft | 395 kts | 169° |
| 2026-04-25 10:39 | 25.10380 | 121.57882 | 14618 ft | 408 kts | 155° |
| 2026-04-25 10:39 | 25.07992 | 121.59574 | 15138 ft | 416 kts | 152° |
| 2026-04-25 10:39 | 25.05520 | 121.61271 | 15614 ft | 421 kts | 154° |
| 2026-04-25 10:40 | 25.02978 | 121.62907 | 16145 ft | 425 kts | 155° |
| 2026-04-25 10:40 | 25.00406 | 121.64500 | 16766 ft | 424 kts | 156° |
| 2026-04-25 10:40 | 24.97832 | 121.66052 | 17040 ft | 419 kts | 157° |
| 2026-04-25 10:40 | 24.95227 | 121.67589 | 17061 ft | 433 kts | 157° |
| 2026-04-25 10:41 | 24.92532 | 121.69174 | 17065 ft | 444 kts | 156° |
| 2026-04-25 10:41 | 24.89788 | 121.70792 | 17069 ft | 449 kts | 156° |
| 2026-04-25 10:41 | 24.87031 | 121.72426 | 17065 ft | 450 kts | 156° |
| 2026-04-25 10:41 | 24.84258 | 121.74063 | 17046 ft | 451 kts | 156° |
| 2026-04-25 10:42 | 24.81482 | 121.75702 | 17041 ft | 452 kts | 156° |
| 2026-04-25 10:42 | 24.78749 | 121.77317 | 17044 ft | 452 kts | 156° |
| 2026-04-25 10:42 | 24.75979 | 121.78954 | 17057 ft | 451 kts | 156° |
| 2026-04-25 10:42 | 24.73215 | 121.80587 | 17033 ft | 451 kts | 156° |
| 2026-04-25 10:43 | 24.70456 | 121.82217 | 17046 ft | 450 kts | 156° |
| 2026-04-25 10:43 | 24.67696 | 121.83845 | 17058 ft | 449 kts | 156° |
| 2026-04-25 10:43 | 24.64938 | 121.85472 | 17040 ft | 449 kts | 156° |
| 2026-04-25 10:43 | 24.62186 | 121.87093 | 17045 ft | 449 kts | 156° |
| 2026-04-25 10:44 | 24.59427 | 121.88718 | 17051 ft | 449 kts | 156° |
| 2026-04-25 10:44 | 24.56671 | 121.90341 | 17048 ft | 449 kts | 156° |
| 2026-04-25 10:44 | 24.53914 | 121.91964 | 17048 ft | 449 kts | 156° |
| 2026-04-25 10:44 | 24.51193 | 121.93564 | 17051 ft | 449 kts | 156° |
| 2026-04-25 10:45 | 24.48439 | 121.95184 | 17047 ft | 449 kts | 156° |
| 2026-04-25 10:45 | 24.45679 | 121.96805 | 17047 ft | 449 kts | 156° |
| 2026-04-25 10:45 | 24.42925 | 121.98424 | 17035 ft | 450 kts | 156° |
| 2026-04-25 10:45 | 24.40165 | 122.00044 | 17034 ft | 450 kts | 156° |
| 2026-04-25 10:46 | 24.37378 | 122.01574 | 17025 ft | 445 kts | 164° |
| 2026-04-25 10:46 | 24.34391 | 122.02170 | 17059 ft | 432 kts | 185° |
| 2026-04-25 10:46 | 24.31429 | 122.01758 | 17362 ft | 427 kts | 199° |
| 2026-04-25 10:46 | 24.28592 | 122.00830 | 17932 ft | 424 kts | 202° |
| 2026-04-25 10:47 | 24.25774 | 121.99852 | 18425 ft | 425 kts | 202° |
| 2026-04-25 10:47 | 24.22946 | 121.98874 | 18828 ft | 427 kts | 202° |
| 2026-04-25 10:47 | 24.20099 | 121.97909 | 19230 ft | 429 kts | 201° |
| 2026-04-25 10:47 | 24.17236 | 121.96956 | 19640 ft | 430 kts | 201° |
| 2026-04-25 10:48 | 24.14401 | 121.96024 | 20046 ft | 432 kts | 201° |
| 2026-04-25 10:48 | 24.11513 | 121.95077 | 20425 ft | 433 kts | 201° |
| 2026-04-25 10:48 | 24.08620 | 121.94130 | 20796 ft | 435 kts | 201° |
| 2026-04-25 10:48 | 24.05713 | 121.93179 | 21055 ft | 439 kts | 201° |
| 2026-04-25 10:49 | 24.02766 | 121.92243 | 21334 ft | 442 kts | 200° |
| 2026-04-25 10:49 | 23.99802 | 121.91312 | 21645 ft | 444 kts | 200° |
| 2026-04-25 10:49 | 23.96836 | 121.90357 | 21968 ft | 445 kts | 201° |
| 2026-04-25 10:49 | 23.93865 | 121.89384 | 22275 ft | 446 kts | 201° |
| 2026-04-25 10:50 | 23.90882 | 121.88404 | 22574 ft | 448 kts | 201° |
| 2026-04-25 10:50 | 23.87885 | 121.87422 | 22869 ft | 449 kts | 201° |
| 2026-04-25 10:50 | 23.84880 | 121.86442 | 23153 ft | 451 kts | 201° |
| 2026-04-25 10:50 | 23.81869 | 121.85462 | 23396 ft | 452 kts | 201° |
| 2026-04-25 10:51 | 23.78846 | 121.84485 | 23596 ft | 455 kts | 201° |
| 2026-04-25 10:51 | 23.75800 | 121.83504 | 23790 ft | 457 kts | 201° |
| 2026-04-25 10:51 | 23.72746 | 121.82522 | 24000 ft | 458 kts | 201° |
| 2026-04-25 10:51 | 23.69688 | 121.81539 | 24228 ft | 458 kts | 201° |
| 2026-04-25 10:52 | 23.66629 | 121.80555 | 24516 ft | 457 kts | 201° |
| 2026-04-25 10:52 | 23.63627 | 121.79590 | 24908 ft | 453 kts | 201° |
| 2026-04-25 10:52 | 23.60624 | 121.78619 | 25441 ft | 445 kts | 202° |
| 2026-04-25 10:52 | 23.57687 | 121.77617 | 25879 ft | 441 kts | 203° |
| 2026-04-25 10:53 | 23.54738 | 121.76637 | 26126 ft | 443 kts | 201° |
| 2026-04-25 10:53 | 23.51766 | 121.75695 | 26381 ft | 444 kts | 201° |
| 2026-04-25 10:53 | 23.48785 | 121.74763 | 26675 ft | 444 kts | 201° |
| 2026-04-25 10:53 | 23.45822 | 121.73833 | 27005 ft | 442 kts | 201° |
| 2026-04-25 10:54 | 23.42894 | 121.72906 | 26995 ft | 444 kts | 201° |
| 2026-04-25 10:54 | 23.40895 | 121.72270 | 27017 ft | 442 kts | 201° |
| 2026-04-25 10:54 | 23.36996 | 121.71015 | 27008 ft | 440 kts | 202° |
| 2026-04-25 10:54 | 23.34053 | 121.70059 | 27013 ft | 440 kts | 202° |
| 2026-04-25 10:55 | 23.31119 | 121.69104 | 26991 ft | 440 kts | 201° |
| 2026-04-25 10:55 | 23.28179 | 121.68150 | 26992 ft | 440 kts | 201° |
| 2026-04-25 10:55 | 23.25243 | 121.67198 | 27002 ft | 440 kts | 201° |
| 2026-04-25 10:55 | 23.22299 | 121.66246 | 27004 ft | 441 kts | 201° |
| 2026-04-25 10:56 | 23.19394 | 121.65307 | 27005 ft | 441 kts | 201° |
| 2026-04-25 10:56 | 23.16418 | 121.64345 | 27001 ft | 441 kts | 201° |
| 2026-04-25 10:56 | 23.13471 | 121.63391 | 27001 ft | 442 kts | 201° |
| 2026-04-25 10:56 | 23.10560 | 121.62448 | 27000 ft | 442 kts | 201° |
| 2026-04-25 10:57 | 23.07613 | 121.61492 | 26998 ft | 442 kts | 201° |
| 2026-04-25 10:57 | 23.04669 | 121.60538 | 26983 ft | 442 kts | 200° |
| 2026-04-25 10:57 | 23.01713 | 121.59581 | 26990 ft | 443 kts | 200° |
| 2026-04-25 10:57 | 22.98760 | 121.58627 | 26993 ft | 443 kts | 200° |
| 2026-04-25 10:58 | 22.95808 | 121.57685 | 26996 ft | 443 kts | 200° |
| 2026-04-25 10:58 | 22.92847 | 121.56748 | 26995 ft | 444 kts | 200° |
| 2026-04-25 10:58 | 22.89878 | 121.55812 | 26992 ft | 444 kts | 200° |
| 2026-04-25 10:58 | 22.86907 | 121.54875 | 26992 ft | 444 kts | 200° |
| 2026-04-25 10:59 | 22.83935 | 121.53936 | 26993 ft | 444 kts | 200° |
| 2026-04-25 10:59 | 22.80966 | 121.52998 | 26992 ft | 444 kts | 200° |
| 2026-04-25 10:59 | 22.78002 | 121.52060 | 26984 ft | 444 kts | 200° |
| 2026-04-25 10:59 | 22.75036 | 121.51123 | 26989 ft | 444 kts | 200° |
| 2026-04-25 11:00 | 22.72090 | 121.50128 | 26985 ft | 443 kts | 202° |
| 2026-04-25 11:00 | 22.69216 | 121.48957 | 26981 ft | 440 kts | 207° |
| 2026-04-25 11:00 | 22.66532 | 121.47389 | 26991 ft | 437 kts | 214° |
| 2026-04-25 11:00 | 22.64087 | 121.45444 | 26993 ft | 435 kts | 221° |
| 2026-04-25 11:01 | 22.61753 | 121.43415 | 26995 ft | 435 kts | 220° |
| 2026-04-25 11:01 | 22.59381 | 121.41379 | 26989 ft | 435 kts | 220° |
| 2026-04-25 11:01 | 22.56967 | 121.39328 | 26988 ft | 436 kts | 220° |
| 2026-04-25 11:01 | 22.54609 | 121.37337 | 26977 ft | 436 kts | 220° |
| 2026-04-25 11:02 | 22.52214 | 121.35319 | 26982 ft | 436 kts | 220° |
| 2026-04-25 11:02 | 22.49825 | 121.33309 | 26979 ft | 436 kts | 220° |
| 2026-04-25 11:02 | 22.47433 | 121.31295 | 26982 ft | 436 kts | 220° |
| 2026-04-25 11:02 | 22.45036 | 121.29277 | 26987 ft | 436 kts | 220° |
| 2026-04-25 11:03 | 22.42640 | 121.27262 | 26984 ft | 436 kts | 220° |
| 2026-04-25 11:03 | 22.40252 | 121.25238 | 26989 ft | 436 kts | 220° |
| 2026-04-25 11:03 | 22.37890 | 121.23178 | 26999 ft | 436 kts | 221° |
| 2026-04-25 11:03 | 22.35531 | 121.21105 | 26993 ft | 436 kts | 221° |
| 2026-04-25 11:04 | 22.33157 | 121.19047 | 26988 ft | 437 kts | 220° |
| 2026-04-25 11:04 | 22.30781 | 121.17010 | 26980 ft | 437 kts | 220° |
| 2026-04-25 11:04 | 22.28395 | 121.14969 | 26983 ft | 437 kts | 220° |
| 2026-04-25 11:04 | 22.26819 | 121.13619 | 26991 ft | 437 kts | 220° |
| 2026-04-25 11:05 | 22.23630 | 121.10871 | 26993 ft | 438 kts | 220° |
| 2026-04-25 11:05 | 22.21259 | 121.08818 | 27000 ft | 438 kts | 220° |
| 2026-04-25 11:05 | 22.18876 | 121.06755 | 27002 ft | 438 kts | 220° |
| 2026-04-25 11:05 | 22.16527 | 121.04721 | 27005 ft | 439 kts | 220° |
| 2026-04-25 11:06 | 22.14142 | 121.02659 | 27001 ft | 439 kts | 220° |
| 2026-04-25 11:06 | 22.11756 | 121.00598 | 27006 ft | 439 kts | 220° |
| 2026-04-25 11:06 | 22.09357 | 120.98525 | 26415 ft | 445 kts | 220° |
| 2026-04-25 11:06 | 22.06936 | 120.96436 | 25524 ft | 444 kts | 221° |
| 2026-04-25 11:07 | 22.04515 | 120.94357 | 24492 ft | 446 kts | 220° |
| 2026-04-25 11:07 | 22.02079 | 120.92285 | 23573 ft | 446 kts | 220° |
| 2026-04-25 11:07 | 21.99714 | 120.90139 | 22618 ft | 441 kts | 229° |
| 2026-04-25 11:07 | 21.98001 | 120.87464 | 21838 ft | 431 kts | 245° |
| 2026-04-25 11:08 | 21.97040 | 120.84445 | 21097 ft | 424 kts | 258° |
| 2026-04-25 11:08 | 21.96775 | 120.81350 | 20435 ft | 418 kts | 271° |
| 2026-04-25 11:08 | 21.97098 | 120.78262 | 19741 ft | 413 kts | 281° |
| 2026-04-25 11:08 | 21.98016 | 120.75341 | 19039 ft | 412 kts | 295° |
| 2026-04-25 11:09 | 21.99450 | 120.72679 | 18315 ft | 410 kts | 300° |
| 2026-04-25 11:09 | 22.00975 | 120.70093 | 17498 ft | 407 kts | 301° |
| 2026-04-25 11:09 | 22.02502 | 120.67546 | 16762 ft | 403 kts | 301° |
| 2026-04-25 11:09 | 22.04011 | 120.65018 | 16053 ft | 399 kts | 301° |
| 2026-04-25 11:10 | 22.05498 | 120.62506 | 15351 ft | 395 kts | 300° |
| 2026-04-25 11:10 | 22.06465 | 120.60859 | 14907 ft | 392 kts | 300° |
| 2026-04-25 11:10 | 22.08401 | 120.57538 | 13976 ft | 389 kts | 300° |
| 2026-04-25 11:10 | 22.09829 | 120.55077 | 13234 ft | 387 kts | 300° |
| 2026-04-25 11:11 | 22.11250 | 120.52625 | 12520 ft | 383 kts | 300° |
| 2026-04-25 11:11 | 22.12652 | 120.50201 | 11840 ft | 379 kts | 300° |
| 2026-04-25 11:11 | 22.14042 | 120.47797 | 11213 ft | 375 kts | 300° |
| 2026-04-25 11:11 | 22.15390 | 120.45468 | 11077 ft | 358 kts | 300° |
| 2026-04-25 11:12 | 22.16680 | 120.43238 | 10914 ft | 343 kts | 300° |
| 2026-04-25 11:12 | 22.17902 | 120.41123 | 10769 ft | 330 kts | 300° |
| 2026-04-25 11:12 | 22.19112 | 120.39028 | 10623 ft | 318 kts | 300° |
| 2026-04-25 11:12 | 22.20243 | 120.37069 | 10492 ft | 307 kts | 300° |
| 2026-04-25 11:13 | 22.21357 | 120.35138 | 10359 ft | 297 kts | 300° |
| 2026-04-25 11:13 | 22.22428 | 120.33279 | 10242 ft | 287 kts | 300° |
| 2026-04-25 11:13 | 22.23467 | 120.31476 | 10122 ft | 278 kts | 300° |
| 2026-04-25 11:13 | 22.24475 | 120.29728 | 10000 ft | 270 kts | 300° |
| 2026-04-25 11:14 | 22.25463 | 120.28012 | 9696 ft | 269 kts | 300° |
| 2026-04-25 11:14 | 22.26446 | 120.26304 | 9411 ft | 267 kts | 300° |
| 2026-04-25 11:14 | 22.27426 | 120.24603 | 9120 ft | 265 kts | 300° |
| 2026-04-25 11:14 | 22.28395 | 120.22919 | 8835 ft | 264 kts | 300° |
| 2026-04-25 11:15 | 22.29349 | 120.21264 | 8568 ft | 262 kts | 300° |
| 2026-04-25 11:15 | 22.30320 | 120.19579 | 8289 ft | 260 kts | 300° |
| 2026-04-25 11:15 | 22.31261 | 120.17944 | 8020 ft | 259 kts | 300° |
| 2026-04-25 11:15 | 22.32211 | 120.16295 | 7749 ft | 258 kts | 300° |
| 2026-04-25 11:16 | 22.34102 | 120.13008 | 7189 ft | 257 kts | 301° |
| 2026-04-25 11:16 | 22.35043 | 120.11372 | 6913 ft | 256 kts | 301° |
| 2026-04-25 11:16 | 22.35981 | 120.09739 | 6644 ft | 256 kts | 301° |
| 2026-04-25 11:17 | 22.36919 | 120.08109 | 6359 ft | 255 kts | 301° |
| 2026-04-25 11:17 | 22.37990 | 120.06578 | 6037 ft | 257 kts | 319° |
| 2026-04-25 11:17 | 22.39583 | 120.05745 | 5769 ft | 258 kts | 345° |
| 2026-04-25 11:17 | 22.41364 | 120.05684 | 5500 ft | 261 kts | 5° |
| 2026-04-25 11:18 | 22.43151 | 120.06036 | 5227 ft | 260 kts | 9° |
| 2026-04-25 11:18 | 22.44929 | 120.06421 | 5064 ft | 261 kts | 9° |
| 2026-04-25 11:18 | 22.46707 | 120.06806 | 5018 ft | 259 kts | 9° |
| 2026-04-25 11:18 | 22.48435 | 120.07176 | 4989 ft | 247 kts | 9° |
| 2026-04-25 11:19 | 22.50072 | 120.07520 | 4983 ft | 233 kts | 8° |
| 2026-04-25 11:19 | 22.51627 | 120.07846 | 4822 ft | 228 kts | 9° |
| 2026-04-25 11:19 | 22.53186 | 120.08200 | 4681 ft | 220 kts | 8° |
| 2026-04-25 11:19 | 22.54660 | 120.08499 | 4727 ft | 215 kts | 8° |
| 2026-04-25 11:20 | 22.56133 | 120.08804 | 4433 ft | 220 kts | 13° |
| 2026-04-25 11:20 | 22.57468 | 120.09625 | 4126 ft | 225 kts | 47° |
| 2026-04-25 11:20 | 22.58248 | 120.11092 | 3848 ft | 228 kts | 74° |
| 2026-04-25 11:20 | 22.58410 | 120.12793 | 3587 ft | 229 kts | 91° |
| 2026-04-25 11:21 | 22.58373 | 120.13937 | 3384 ft | 230 kts | 92° |
| 2026-04-25 11:21 | 22.58316 | 120.15677 | 3075 ft | 233 kts | 92° |
| 2026-04-25 11:21 | 22.58259 | 120.17439 | 2760 ft | 235 kts | 91° |
| 2026-04-25 11:21 | 22.58202 | 120.19218 | 2452 ft | 238 kts | 91° |
| 2026-04-25 11:22 | 22.58145 | 120.21005 | 2181 ft | 238 kts | 91° |
| 2026-04-25 11:22 | 22.58088 | 120.22793 | 1910 ft | 235 kts | 91° |
| 2026-04-25 11:22 | 22.58033 | 120.24535 | 1621 ft | 226 kts | 90° |
| 2026-04-25 11:22 | 22.57982 | 120.26162 | 1376 ft | 206 kts | 90° |
| 2026-04-25 11:23 | 22.57936 | 120.27634 | 1163 ft | 187 kts | 90° |
| 2026-04-25 11:23 | 22.57880 | 120.29400 | 860 ft | 169 kts | 89° |
| 2026-04-25 11:23 | 22.57855 | 120.30240 | 739 ft | 162 kts | 90° |
| 2026-04-25 11:23 | 22.57819 | 120.31406 | 527 ft | 153 kts | 90° |
| 2026-04-25 11:24 | 22.57793 | 120.32523 | 396 ft | 138 kts | 89° |
| 2026-04-25 11:24 | 22.57750 | 120.33511 | 122 ft | 125 kts | 88° |
| 2026-04-25 11:24 | 22.57731 | 120.34435 | 30 ft | 116 kts | 92° |
| 2026-04-25 11:24 | 22.57708 | 120.35143 | 31 ft | 73 kts | 91° |
| 2026-04-25 11:25 | 22.57698 | 120.35614 | 33 ft | 59 kts | 90° |
| 2026-04-25 11:25 | 22.57668 | 120.35893 | 36 ft | 23 kts | 121° |
| 2026-04-25 11:25 | 22.57617 | 120.35920 | 36 ft | 0 kts | 180° |
| 2026-04-25 11:26 | 22.57608 | 120.35919 | 36 ft | 6 kts | 184° |
| 2026-04-25 11:26 | 22.57554 | 120.35911 | 34 ft | 0 kts | 196° |
| 2026-04-25 11:26 | 22.57526 | 120.35882 | 35 ft | 12 kts | 240° |
| 2026-04-25 11:27 | 22.57541 | 120.35776 | 33 ft | 22 kts | 322° |
| 2026-04-25 11:27 | 22.57582 | 120.35738 | 34 ft | 1 kts | 283° |
| 2026-04-25 11:27 | 22.57566 | 120.35714 | 34 ft | 10 kts | 224° |
| 2026-04-25 11:27 | 22.57527 | 120.35650 | 34 ft | 20 kts | 252° |
| 2026-04-25 11:28 | 22.57529 | 120.35424 | 33 ft | 25 kts | 272° |
| 2026-04-25 11:28 | 22.57533 | 120.35298 | 32 ft | 16 kts | 271° |
| 2026-04-25 11:28 | 22.57536 | 120.35181 | 32 ft | 16 kts | 272° |
| 2026-04-25 11:28 | 22.57540 | 120.35066 | 32 ft | 15 kts | 272° |
| 2026-04-25 11:29 | 22.57543 | 120.34951 | 31 ft | 17 kts | 271° |
| 2026-04-25 11:29 | 22.57548 | 120.34809 | 31 ft | 22 kts | 272° |
| 2026-04-25 11:29 | 22.57554 | 120.34617 | 30 ft | 29 kts | 271° |
| 2026-04-25 11:29 | 22.57560 | 120.34376 | 29 ft | 35 kts | 272° |
| 2026-04-25 11:30 | 22.57565 | 120.34230 | 29 ft | 18 kts | 272° |
| 2026-04-25 11:30 | 22.57527 | 120.34134 | 28 ft | 15 kts | 205° |
| 2026-04-25 11:30 | 22.57433 | 120.34134 | 28 ft | 13 kts | 151° |
| 2026-04-25 11:30 | 22.57408 | 120.34222 | 29 ft | 12 kts | 92° |
| 2026-04-25 11:31 | 22.57397 | 120.34312 | 29 ft | 12 kts | 124° |
| 2026-04-25 11:31 | 22.57351 | 120.34330 | 29 ft | 0 kts | 184° |
| 2026-04-25 11:31 | 22.57342 | 120.34329 | 29 ft | 7 kts | 184° |
| 2026-04-25 11:31 | 22.57315 | 120.34317 | 29 ft | 5 kts | 244° |
| 2026-04-25 11:32 | 22.57321 | 120.34252 | 29 ft | 6 kts | 281° |
| 2026-04-25 11:32 | 22.57322 | 120.34231 | 29 ft | 0 kts | 272° |